Skip Navigation Links Skip Navigation Links

Current Weather

Detroit City, Detroit

For information only: do not use for flight planning or navigation.
Latest weather
Observation time Sunday, May 31, 2020 7:53 AM EDT
Local time Sunday, May 31, 2020 8:41 AM EDT
Flight conditions Visual Meteorological Conditions
Winds
Wind direction North (360°)
Wind speed 12 mph
Visibility 10 mi.
Sky condition
Ceiling unlimited
Sky clear
Temperature 48°F
Dewpoint 35°F
Altimeter 30.32 in.Hg
Pressure change last 3 hours-0.06 in.Hg
Pressure rising more slowly
Derived measurements
Relative humidity 61%
Wind chill 43°F
Density altitude -457 ft.
Sea-level pressure 30.32 in.Hg
Climate data
Temperature minimum, last 6 hours 45°F
Temperature maximum, last 6 hours 50°F
Remarks
Automated weather observing station with precipitation discriminator.
METAR KDET 311153Z 36010KT 10SM CLR 09/02 A3032 RMK AO2 SLP268 T00890017 10100 20072 51022

Settings

Location code

InnerDrive.Weather 4.0.6770.0 Release CLR 4.0.30319.42000
Copyright ©2018 Inner Drive Technology. All rights reserved. Portions Copyright ©1986-2018 David Braverman.

Find weather

Site navigation


Skip Navigation Links

Place info

Page info

PayPal - The safer, easier way to pay online!

Return home.

Copyright ©2020 Inner Drive Technology. Purveyors of fine, hand-crafted computer software. Page printed 2020-05-31T12:41:41 UTC.